sensor_id;sensor_type;location;lat;lon;timestamp;temperature;humidity
3727;DHT22;1879;45.876;12.300;2023-03-14T00:00:08;12.70;99.90
3727;DHT22;1879;45.876;12.300;2023-03-14T00:02:37;12.70;99.90
3727;DHT22;1879;45.876;12.300;2023-03-14T00:05:05;12.80;99.90
3727;DHT22;1879;45.876;12.300;2023-03-14T00:07:36;12.80;99.90
3727;DHT22;1879;45.876;12.300;2023-03-14T00:10:04;12.80;99.90
3727;DHT22;1879;45.876;12.300;2023-03-14T00:12:32;12.80;99.90
3727;DHT22;1879;45.876;12.300;2023-03-14T00:14:59;12.80;99.90
3727;DHT22;1879;45.876;12.300;2023-03-14T00:17:29;12.90;99.90
3727;DHT22;1879;45.876;12.300;2023-03-14T00:19:56;12.90;99.90
3727;DHT22;1879;45.876;12.300;2023-03-14T00:22:29;12.90;99.90
3727;DHT22;1879;45.876;12.300;2023-03-14T00:24:58;12.90;99.90
3727;DHT22;1879;45.876;12.300;2023-03-14T00:27:25;12.90;99.90
3727;DHT22;1879;45.876;12.300;2023-03-14T00:29:51;12.90;99.90
3727;DHT22;1879;45.876;12.300;2023-03-14T00:32:18;12.90;99.90
3727;DHT22;1879;45.876;12.300;2023-03-14T00:34:45;13.00;99.90
3727;DHT22;1879;45.876;12.300;2023-03-14T00:37:12;12.90;99.90
3727;DHT22;1879;45.876;12.300;2023-03-14T00:39:40;12.90;99.90
3727;DHT22;1879;45.876;12.300;2023-03-14T00:42:08;13.00;99.90
3727;DHT22;1879;45.876;12.300;2023-03-14T00:44:35;13.00;99.90
3727;DHT22;1879;45.876;12.300;2023-03-14T00:47:02;13.00;99.90
3727;DHT22;1879;45.876;12.300;2023-03-14T00:49:29;13.00;99.90
3727;DHT22;1879;45.876;12.300;2023-03-14T00:51:56;13.10;99.90
3727;DHT22;1879;45.876;12.300;2023-03-14T00:54:23;13.10;99.90
3727;DHT22;1879;45.876;12.300;2023-03-14T00:56:50;13.10;99.90
3727;DHT22;1879;45.876;12.300;2023-03-14T00:59:18;13.20;99.90
3727;DHT22;1879;45.876;12.300;2023-03-14T01:01:45;13.20;99.90
3727;DHT22;1879;45.876;12.300;2023-03-14T01:04:12;13.20;99.90
3727;DHT22;1879;45.876;12.300;2023-03-14T01:06:39;13.30;99.90
3727;DHT22;1879;45.876;12.300;2023-03-14T01:09:12;13.20;99.90
3727;DHT22;1879;45.876;12.300;2023-03-14T01:11:39;13.30;99.90
3727;DHT22;1879;45.876;12.300;2023-03-14T01:14:07;13.30;99.90
3727;DHT22;1879;45.876;12.300;2023-03-14T01:16:36;13.30;99.90
3727;DHT22;1879;45.876;12.300;2023-03-14T01:19:03;13.20;99.90
3727;DHT22;1879;45.876;12.300;2023-03-14T01:21:31;13.20;99.90
3727;DHT22;1879;45.876;12.300;2023-03-14T01:24:00;13.20;99.90
3727;DHT22;1879;45.876;12.300;2023-03-14T01:26:30;13.20;99.90
3727;DHT22;1879;45.876;12.300;2023-03-14T01:28:58;13.20;99.90
3727;DHT22;1879;45.876;12.300;2023-03-14T01:31:26;13.20;99.90
3727;DHT22;1879;45.876;12.300;2023-03-14T01:33:54;13.20;99.90
3727;DHT22;1879;45.876;12.300;2023-03-14T01:36:21;13.10;99.90
3727;DHT22;1879;45.876;12.300;2023-03-14T01:38:48;13.10;99.90
3727;DHT22;1879;45.876;12.300;2023-03-14T01:41:18;13.00;99.90
3727;DHT22;1879;45.876;12.300;2023-03-14T01:43:45;13.00;99.90
3727;DHT22;1879;45.876;12.300;2023-03-14T01:46:21;13.00;99.90
3727;DHT22;1879;45.876;12.300;2023-03-14T01:48:59;12.90;99.90
3727;DHT22;1879;45.876;12.300;2023-03-14T01:51:32;12.90;99.90
3727;DHT22;1879;45.876;12.300;2023-03-14T01:54:03;12.90;99.90
3727;DHT22;1879;45.876;12.300;2023-03-14T01:56:33;12.90;99.90
3727;DHT22;1879;45.876;12.300;2023-03-14T01:59:01;12.90;99.90
3727;DHT22;1879;45.876;12.300;2023-03-14T02:01:30;12.80;99.90
3727;DHT22;1879;45.876;12.300;2023-03-14T02:04:02;12.80;99.90
3727;DHT22;1879;45.876;12.300;2023-03-14T02:06:35;12.80;99.90
3727;DHT22;1879;45.876;12.300;2023-03-14T02:09:05;12.80;99.90
3727;DHT22;1879;45.876;12.300;2023-03-14T02:11:32;12.80;99.90
3727;DHT22;1879;45.876;12.300;2023-03-14T02:14:00;12.80;99.90
3727;DHT22;1879;45.876;12.300;2023-03-14T02:16:28;12.70;99.90
3727;DHT22;1879;45.876;12.300;2023-03-14T02:18:55;12.70;99.90
3727;DHT22;1879;45.876;12.300;2023-03-14T02:21:34;12.70;99.90
3727;DHT22;1879;45.876;12.300;2023-03-14T02:24:09;12.80;99.90
3727;DHT22;1879;45.876;12.300;2023-03-14T02:26:44;12.80;99.90
3727;DHT22;1879;45.876;12.300;2023-03-14T02:29:13;12.80;99.90
3727;DHT22;1879;45.876;12.300;2023-03-14T02:31:40;12.90;99.90
3727;DHT22;1879;45.876;12.300;2023-03-14T02:34:07;12.80;99.90
3727;DHT22;1879;45.876;12.300;2023-03-14T02:36:34;12.90;99.90
3727;DHT22;1879;45.876;12.300;2023-03-14T02:39:06;12.90;99.90
3727;DHT22;1879;45.876;12.300;2023-03-14T02:41:35;12.90;99.90
3727;DHT22;1879;45.876;12.300;2023-03-14T02:44:02;12.90;99.90
3727;DHT22;1879;45.876;12.300;2023-03-14T02:46:30;12.90;99.90
3727;DHT22;1879;45.876;12.300;2023-03-14T02:49:03;12.90;99.90
3727;DHT22;1879;45.876;12.300;2023-03-14T02:51:30;12.90;99.90
3727;DHT22;1879;45.876;12.300;2023-03-14T02:53:58;13.00;99.90
3727;DHT22;1879;45.876;12.300;2023-03-14T02:56:25;13.00;99.90
3727;DHT22;1879;45.876;12.300;2023-03-14T02:58:52;13.00;99.90
3727;DHT22;1879;45.876;12.300;2023-03-14T03:01:19;13.00;99.90
3727;DHT22;1879;45.876;12.300;2023-03-14T03:03:48;13.00;99.90
3727;DHT22;1879;45.876;12.300;2023-03-14T03:06:15;13.00;99.90
3727;DHT22;1879;45.876;12.300;2023-03-14T03:08:42;13.00;99.90
3727;DHT22;1879;45.876;12.300;2023-03-14T03:11:09;13.00;99.90
3727;DHT22;1879;45.876;12.300;2023-03-14T03:13:36;13.00;99.90
3727;DHT22;1879;45.876;12.300;2023-03-14T03:16:03;13.00;99.90
3727;DHT22;1879;45.876;12.300;2023-03-14T03:18:31;12.90;99.90
3727;DHT22;1879;45.876;12.300;2023-03-14T03:21:01;13.00;99.90
3727;DHT22;1879;45.876;12.300;2023-03-14T03:23:28;13.00;99.90
3727;DHT22;1879;45.876;12.300;2023-03-14T03:25:55;13.10;99.90
3727;DHT22;1879;45.876;12.300;2023-03-14T03:28:22;13.10;99.90
3727;DHT22;1879;45.876;12.300;2023-03-14T03:30:49;13.00;99.90
3727;DHT22;1879;45.876;12.300;2023-03-14T03:33:16;13.00;99.90
3727;DHT22;1879;45.876;12.300;2023-03-14T03:35:44;13.10;99.90
3727;DHT22;1879;45.876;12.300;2023-03-14T03:38:13;13.10;99.90
3727;DHT22;1879;45.876;12.300;2023-03-14T03:40:40;13.10;99.90
3727;DHT22;1879;45.876;12.300;2023-03-14T03:43:07;13.00;99.90
3727;DHT22;1879;45.876;12.300;2023-03-14T03:45:34;13.10;99.90
3727;DHT22;1879;45.876;12.300;2023-03-14T03:48:01;13.00;99.90
3727;DHT22;1879;45.876;12.300;2023-03-14T03:50:28;13.00;99.90
3727;DHT22;1879;45.876;12.300;2023-03-14T03:52:55;13.00;99.90
3727;DHT22;1879;45.876;12.300;2023-03-14T03:55:24;13.00;99.90
3727;DHT22;1879;45.876;12.300;2023-03-14T03:57:53;13.00;99.90
3727;DHT22;1879;45.876;12.300;2023-03-14T04:00:23;13.00;99.90
3727;DHT22;1879;45.876;12.300;2023-03-14T04:02:51;13.00;99.90
3727;DHT22;1879;45.876;12.300;2023-03-14T04:05:17;12.90;99.90
3727;DHT22;1879;45.876;12.300;2023-03-14T04:07:44;12.90;99.90
3727;DHT22;1879;45.876;12.300;2023-03-14T04:10:11;12.90;99.90
3727;DHT22;1879;45.876;12.300;2023-03-14T04:12:40;12.80;99.90
3727;DHT22;1879;45.876;12.300;2023-03-14T04:15:08;12.80;99.90
3727;DHT22;1879;45.876;12.300;2023-03-14T04:17:35;12.70;99.90
3727;DHT22;1879;45.876;12.300;2023-03-14T04:20:02;12.70;99.90
3727;DHT22;1879;45.876;12.300;2023-03-14T04:22:30;12.70;99.90
3727;DHT22;1879;45.876;12.300;2023-03-14T04:24:57;12.70;99.90
3727;DHT22;1879;45.876;12.300;2023-03-14T04:27:24;12.70;99.90
3727;DHT22;1879;45.876;12.300;2023-03-14T04:29:52;12.80;99.90
3727;DHT22;1879;45.876;12.300;2023-03-14T04:32:19;12.80;99.90
3727;DHT22;1879;45.876;12.300;2023-03-14T04:34:46;12.80;99.90
3727;DHT22;1879;45.876;12.300;2023-03-14T04:37:13;12.80;99.90
3727;DHT22;1879;45.876;12.300;2023-03-14T04:39:40;12.80;99.90
3727;DHT22;1879;45.876;12.300;2023-03-14T04:42:08;12.80;99.90
3727;DHT22;1879;45.876;12.300;2023-03-14T04:44:34;12.80;99.90
3727;DHT22;1879;45.876;12.300;2023-03-14T04:47:03;12.80;99.90
3727;DHT22;1879;45.876;12.300;2023-03-14T04:49:30;12.80;99.90
3727;DHT22;1879;45.876;12.300;2023-03-14T04:51:57;12.80;99.90
3727;DHT22;1879;45.876;12.300;2023-03-14T04:54:24;12.80;99.90
3727;DHT22;1879;45.876;12.300;2023-03-14T04:56:51;12.80;99.90
3727;DHT22;1879;45.876;12.300;2023-03-14T04:59:18;12.90;99.90
3727;DHT22;1879;45.876;12.300;2023-03-14T05:01:45;12.90;99.90
3727;DHT22;1879;45.876;12.300;2023-03-14T05:04:15;12.90;99.90
3727;DHT22;1879;45.876;12.300;2023-03-14T05:06:42;12.80;99.90
3727;DHT22;1879;45.876;12.300;2023-03-14T05:09:10;12.90;99.90
3727;DHT22;1879;45.876;12.300;2023-03-14T05:11:37;12.90;99.90
3727;DHT22;1879;45.876;12.300;2023-03-14T05:14:04;12.90;99.90
3727;DHT22;1879;45.876;12.300;2023-03-14T05:16:30;12.70;99.90
3727;DHT22;1879;45.876;12.300;2023-03-14T05:18:57;12.70;99.90
3727;DHT22;1879;45.876;12.300;2023-03-14T05:21:28;12.70;99.90
3727;DHT22;1879;45.876;12.300;2023-03-14T05:23:55;12.60;99.90
3727;DHT22;1879;45.876;12.300;2023-03-14T05:26:23;12.60;99.90
3727;DHT22;1879;45.876;12.300;2023-03-14T05:28:49;12.60;99.90
3727;DHT22;1879;45.876;12.300;2023-03-14T05:31:16;12.50;99.90
3727;DHT22;1879;45.876;12.300;2023-03-14T05:33:43;12.60;99.90
3727;DHT22;1879;45.876;12.300;2023-03-14T05:36:10;12.50;99.90
3727;DHT22;1879;45.876;12.300;2023-03-14T05:38:39;12.50;99.90
3727;DHT22;1879;45.876;12.300;2023-03-14T05:41:06;12.50;99.90
3727;DHT22;1879;45.876;12.300;2023-03-14T05:43:33;12.60;99.90
3727;DHT22;1879;45.876;12.300;2023-03-14T05:46:00;12.50;99.90
3727;DHT22;1879;45.876;12.300;2023-03-14T05:48:27;12.50;99.90
3727;DHT22;1879;45.876;12.300;2023-03-14T05:50:57;12.50;99.90
3727;DHT22;1879;45.876;12.300;2023-03-14T05:53:25;12.40;99.90
3727;DHT22;1879;45.876;12.300;2023-03-14T05:55:54;12.40;99.90
3727;DHT22;1879;45.876;12.300;2023-03-14T05:58:21;12.40;99.90
3727;DHT22;1879;45.876;12.300;2023-03-14T06:00:49;12.40;99.90
3727;DHT22;1879;45.876;12.300;2023-03-14T06:03:16;12.50;99.90
3727;DHT22;1879;45.876;12.300;2023-03-14T06:05:43;12.50;99.90
3727;DHT22;1879;45.876;12.300;2023-03-14T06:08:10;12.50;99.90
3727;DHT22;1879;45.876;12.300;2023-03-14T06:10:37;12.60;99.90
3727;DHT22;1879;45.876;12.300;2023-03-14T06:13:05;12.60;99.90
3727;DHT22;1879;45.876;12.300;2023-03-14T06:15:32;12.60;99.90
3727;DHT22;1879;45.876;12.300;2023-03-14T06:18:00;12.60;99.90
3727;DHT22;1879;45.876;12.300;2023-03-14T06:20:27;12.60;99.90
3727;DHT22;1879;45.876;12.300;2023-03-14T06:22:54;12.50;99.90
3727;DHT22;1879;45.876;12.300;2023-03-14T06:25:21;12.50;99.90
3727;DHT22;1879;45.876;12.300;2023-03-14T06:27:48;12.50;99.90
3727;DHT22;1879;45.876;12.300;2023-03-14T06:30:17;12.50;99.90
3727;DHT22;1879;45.876;12.300;2023-03-14T06:32:44;12.50;99.90
3727;DHT22;1879;45.876;12.300;2023-03-14T06:35:11;12.40;99.90
3727;DHT22;1879;45.876;12.300;2023-03-14T06:37:39;12.50;99.90
3727;DHT22;1879;45.876;12.300;2023-03-14T06:40:06;12.60;99.90
3727;DHT22;1879;45.876;12.300;2023-03-14T06:42:34;12.60;99.90
3727;DHT22;1879;45.876;12.300;2023-03-14T06:45:01;12.70;99.90
3727;DHT22;1879;45.876;12.300;2023-03-14T06:47:29;12.70;99.90
3727;DHT22;1879;45.876;12.300;2023-03-14T06:49:56;12.60;99.90
3727;DHT22;1879;45.876;12.300;2023-03-14T06:52:23;12.60;99.90
3727;DHT22;1879;45.876;12.300;2023-03-14T06:54:50;12.60;99.90
3727;DHT22;1879;45.876;12.300;2023-03-14T06:57:17;12.60;99.90
3727;DHT22;1879;45.876;12.300;2023-03-14T06:59:44;12.50;99.90
3727;DHT22;1879;45.876;12.300;2023-03-14T07:02:12;12.50;99.90
3727;DHT22;1879;45.876;12.300;2023-03-14T07:04:40;12.60;99.90
3727;DHT22;1879;45.876;12.300;2023-03-14T07:07:07;12.50;99.90
3727;DHT22;1879;45.876;12.300;2023-03-14T07:09:35;12.50;99.90
3727;DHT22;1879;45.876;12.300;2023-03-14T07:12:02;12.60;99.90
3727;DHT22;1879;45.876;12.300;2023-03-14T07:14:30;12.60;99.90
3727;DHT22;1879;45.876;12.300;2023-03-14T07:16:57;12.60;99.90
3727;DHT22;1879;45.876;12.300;2023-03-14T07:19:26;12.50;99.90
3727;DHT22;1879;45.876;12.300;2023-03-14T07:21:55;12.60;99.90
3727;DHT22;1879;45.876;12.300;2023-03-14T07:24:23;12.60;99.90
3727;DHT22;1879;45.876;12.300;2023-03-14T07:26:50;12.60;99.90
3727;DHT22;1879;45.876;12.300;2023-03-14T07:29:17;12.70;99.90
3727;DHT22;1879;45.876;12.300;2023-03-14T07:31:44;12.70;99.90
3727;DHT22;1879;45.876;12.300;2023-03-14T07:34:11;12.60;99.90
3727;DHT22;1879;45.876;12.300;2023-03-14T07:36:38;12.60;99.90
3727;DHT22;1879;45.876;12.300;2023-03-14T07:39:06;12.70;99.90
3727;DHT22;1879;45.876;12.300;2023-03-14T07:41:33;12.80;99.90
3727;DHT22;1879;45.876;12.300;2023-03-14T07:44:00;12.90;99.90
3727;DHT22;1879;45.876;12.300;2023-03-14T07:46:27;12.90;99.90
3727;DHT22;1879;45.876;12.300;2023-03-14T07:48:54;12.80;99.90
3727;DHT22;1879;45.876;12.300;2023-03-14T07:51:21;12.70;99.90
3727;DHT22;1879;45.876;12.300;2023-03-14T07:53:48;12.70;99.90
3727;DHT22;1879;45.876;12.300;2023-03-14T07:56:16;12.60;99.90
3727;DHT22;1879;45.876;12.300;2023-03-14T07:58:46;12.60;99.90
3727;DHT22;1879;45.876;12.300;2023-03-14T08:01:12;12.60;99.90
3727;DHT22;1879;45.876;12.300;2023-03-14T08:03:39;12.60;99.90
3727;DHT22;1879;45.876;12.300;2023-03-14T08:06:06;12.60;99.90
3727;DHT22;1879;45.876;12.300;2023-03-14T08:08:33;12.70;99.90
3727;DHT22;1879;45.876;12.300;2023-03-14T08:11:04;12.80;99.90
3727;DHT22;1879;45.876;12.300;2023-03-14T08:13:32;12.80;99.90
3727;DHT22;1879;45.876;12.300;2023-03-14T08:15:59;12.80;99.90
3727;DHT22;1879;45.876;12.300;2023-03-14T08:18:26;12.70;99.90
3727;DHT22;1879;45.876;12.300;2023-03-14T08:20:53;12.70;99.90
3727;DHT22;1879;45.876;12.300;2023-03-14T08:23:20;12.60;99.90
3727;DHT22;1879;45.876;12.300;2023-03-14T08:25:48;12.70;99.90
3727;DHT22;1879;45.876;12.300;2023-03-14T08:28:16;12.70;99.90
3727;DHT22;1879;45.876;12.300;2023-03-14T08:30:44;12.70;99.90
3727;DHT22;1879;45.876;12.300;2023-03-14T08:33:11;12.80;99.90
3727;DHT22;1879;45.876;12.300;2023-03-14T08:35:38;12.70;99.90
3727;DHT22;1879;45.876;12.300;2023-03-14T08:38:05;12.80;99.90
3727;DHT22;1879;45.876;12.300;2023-03-14T08:40:32;12.80;99.90
3727;DHT22;1879;45.876;12.300;2023-03-14T08:42:59;12.80;99.90
3727;DHT22;1879;45.876;12.300;2023-03-14T08:45:26;12.90;99.90
3727;DHT22;1879;45.876;12.300;2023-03-14T08:47:55;12.90;99.90
3727;DHT22;1879;45.876;12.300;2023-03-14T08:50:21;12.90;99.90
3727;DHT22;1879;45.876;12.300;2023-03-14T08:52:49;12.80;99.90
3727;DHT22;1879;45.876;12.300;2023-03-14T08:55:16;12.80;99.90
3727;DHT22;1879;45.876;12.300;2023-03-14T08:57:44;12.90;99.90
3727;DHT22;1879;45.876;12.300;2023-03-14T09:00:12;12.90;99.90
3727;DHT22;1879;45.876;12.300;2023-03-14T09:02:39;12.90;99.90
3727;DHT22;1879;45.876;12.300;2023-03-14T09:05:09;13.00;99.90
3727;DHT22;1879;45.876;12.300;2023-03-14T09:07:37;13.00;99.90
3727;DHT22;1879;45.876;12.300;2023-03-14T09:10:05;13.00;99.90
3727;DHT22;1879;45.876;12.300;2023-03-14T09:12:32;13.10;99.90
3727;DHT22;1879;45.876;12.300;2023-03-14T09:14:59;13.20;99.90
3727;DHT22;1879;45.876;12.300;2023-03-14T09:17:26;13.10;99.90
3727;DHT22;1879;45.876;12.300;2023-03-14T09:19:53;13.10;99.90
3727;DHT22;1879;45.876;12.300;2023-03-14T09:22:21;13.20;99.90
3727;DHT22;1879;45.876;12.300;2023-03-14T09:24:48;13.20;99.90
3727;DHT22;1879;45.876;12.300;2023-03-14T09:27:15;13.10;99.90
3727;DHT22;1879;45.876;12.300;2023-03-14T09:29:42;13.10;99.90
3727;DHT22;1879;45.876;12.300;2023-03-14T09:32:09;13.20;99.90
3727;DHT22;1879;45.876;12.300;2023-03-14T09:34:36;13.20;99.90
3727;DHT22;1879;45.876;12.300;2023-03-14T09:37:03;13.20;99.90
3727;DHT22;1879;45.876;12.300;2023-03-14T09:39:32;13.20;99.90
3727;DHT22;1879;45.876;12.300;2023-03-14T09:42:02;13.20;99.90
3727;DHT22;1879;45.876;12.300;2023-03-14T09:44:33;13.40;99.90
3727;DHT22;1879;45.876;12.300;2023-03-14T09:47:04;13.40;99.90
3727;DHT22;1879;45.876;12.300;2023-03-14T09:49:33;13.50;99.90
3727;DHT22;1879;45.876;12.300;2023-03-14T09:52:04;13.50;99.90
3727;DHT22;1879;45.876;12.300;2023-03-14T09:54:35;13.60;99.90
3727;DHT22;1879;45.876;12.300;2023-03-14T09:57:05;13.70;99.90
3727;DHT22;1879;45.876;12.300;2023-03-14T09:59:33;13.80;99.90
3727;DHT22;1879;45.876;12.300;2023-03-14T10:02:02;13.80;99.90
3727;DHT22;1879;45.876;12.300;2023-03-14T10:04:38;13.90;99.90
3727;DHT22;1879;45.876;12.300;2023-03-14T10:07:13;13.90;99.90
3727;DHT22;1879;45.876;12.300;2023-03-14T10:09:44;13.80;99.90
3727;DHT22;1879;45.876;12.300;2023-03-14T10:12:11;13.80;99.90
3727;DHT22;1879;45.876;12.300;2023-03-14T10:14:47;13.90;99.90
3727;DHT22;1879;45.876;12.300;2023-03-14T10:17:15;14.00;99.90
3727;DHT22;1879;45.876;12.300;2023-03-14T10:19:54;14.00;99.90
3727;DHT22;1879;45.876;12.300;2023-03-14T10:22:23;14.00;99.90
3727;DHT22;1879;45.876;12.300;2023-03-14T10:24:54;14.00;99.90
3727;DHT22;1879;45.876;12.300;2023-03-14T10:27:28;14.00;99.90
3727;DHT22;1879;45.876;12.300;2023-03-14T10:29:57;14.00;99.90
3727;DHT22;1879;45.876;12.300;2023-03-14T10:32:32;14.00;99.90
3727;DHT22;1879;45.876;12.300;2023-03-14T10:35:17;14.00;99.90
3727;DHT22;1879;45.876;12.300;2023-03-14T10:37:50;14.00;99.90
3727;DHT22;1879;45.876;12.300;2023-03-14T10:40:22;13.90;99.90
3727;DHT22;1879;45.876;12.300;2023-03-14T10:42:51;13.90;99.90
3727;DHT22;1879;45.876;12.300;2023-03-14T10:45:36;13.90;99.90
3727;DHT22;1879;45.876;12.300;2023-03-14T10:48:18;13.90;99.90
3727;DHT22;1879;45.876;12.300;2023-03-14T10:50:53;13.90;99.90
3727;DHT22;1879;45.876;12.300;2023-03-14T10:53:21;13.90;99.90
3727;DHT22;1879;45.876;12.300;2023-03-14T10:55:50;14.00;99.90
3727;DHT22;1879;45.876;12.300;2023-03-14T10:58:22;14.00;99.90
3727;DHT22;1879;45.876;12.300;2023-03-14T11:00:54;14.10;99.90
3727;DHT22;1879;45.876;12.300;2023-03-14T11:03:24;14.10;99.90
3727;DHT22;1879;45.876;12.300;2023-03-14T11:05:56;14.10;99.90
3727;DHT22;1879;45.876;12.300;2023-03-14T11:08:29;14.20;99.90
3727;DHT22;1879;45.876;12.300;2023-03-14T11:11:11;14.30;99.90
3727;DHT22;1879;45.876;12.300;2023-03-14T11:13:45;14.40;99.90
3727;DHT22;1879;45.876;12.300;2023-03-14T11:16:19;14.50;99.90
3727;DHT22;1879;45.876;12.300;2023-03-14T11:19:14;14.50;99.90
3727;DHT22;1879;45.876;12.300;2023-03-14T11:21:51;14.40;99.90
3727;DHT22;1879;45.876;12.300;2023-03-14T11:27:18;14.30;99.90
3727;DHT22;1879;45.876;12.300;2023-03-14T11:29:55;14.30;99.90
3727;DHT22;1879;45.876;12.300;2023-03-14T11:32:43;14.20;99.90
3727;DHT22;1879;45.876;12.300;2023-03-14T11:35:17;14.20;99.90
3727;DHT22;1879;45.876;12.300;2023-03-14T11:37:47;14.20;99.90
3727;DHT22;1879;45.876;12.300;2023-03-14T11:40:18;14.20;99.90
3727;DHT22;1879;45.876;12.300;2023-03-14T11:42:53;14.10;99.90
3727;DHT22;1879;45.876;12.300;2023-03-14T11:45:29;14.00;99.90
3727;DHT22;1879;45.876;12.300;2023-03-14T11:48:12;13.90;99.90
3727;DHT22;1879;45.876;12.300;2023-03-14T11:50:43;13.80;99.90
3727;DHT22;1879;45.876;12.300;2023-03-14T11:53:15;13.70;99.90
3727;DHT22;1879;45.876;12.300;2023-03-14T11:55:45;13.70;99.90
3727;DHT22;1879;45.876;12.300;2023-03-14T11:58:17;13.70;99.90
3727;DHT22;1879;45.876;12.300;2023-03-14T12:00:47;13.80;99.90
3727;DHT22;1879;45.876;12.300;2023-03-14T12:03:25;13.80;99.90
3727;DHT22;1879;45.876;12.300;2023-03-14T12:06:02;13.70;99.90
3727;DHT22;1879;45.876;12.300;2023-03-14T12:08:43;13.70;99.90
3727;DHT22;1879;45.876;12.300;2023-03-14T12:11:16;13.70;99.90
3727;DHT22;1879;45.876;12.300;2023-03-14T12:13:49;13.80;99.90
3727;DHT22;1879;45.876;12.300;2023-03-14T12:16:35;13.80;99.90
3727;DHT22;1879;45.876;12.300;2023-03-14T12:19:29;13.80;99.90
3727;DHT22;1879;45.876;12.300;2023-03-14T12:22:00;13.70;99.90
3727;DHT22;1879;45.876;12.300;2023-03-14T12:24:29;13.80;99.90
3727;DHT22;1879;45.876;12.300;2023-03-14T12:26:59;13.70;99.90
3727;DHT22;1879;45.876;12.300;2023-03-14T12:29:28;13.70;99.90
3727;DHT22;1879;45.876;12.300;2023-03-14T12:32:21;13.80;99.90
3727;DHT22;1879;45.876;12.300;2023-03-14T12:34:49;13.90;99.90
3727;DHT22;1879;45.876;12.300;2023-03-14T12:37:33;13.90;99.90
3727;DHT22;1879;45.876;12.300;2023-03-14T12:40:19;13.90;99.90
3727;DHT22;1879;45.876;12.300;2023-03-14T12:42:56;14.00;99.90
3727;DHT22;1879;45.876;12.300;2023-03-14T12:45:30;14.00;99.90
3727;DHT22;1879;45.876;12.300;2023-03-14T12:48:08;14.20;99.90
3727;DHT22;1879;45.876;12.300;2023-03-14T12:50:40;14.40;99.90
3727;DHT22;1879;45.876;12.300;2023-03-14T12:53:35;14.80;99.90
3727;DHT22;1879;45.876;12.300;2023-03-14T12:56:11;14.80;99.90
3727;DHT22;1879;45.876;12.300;2023-03-14T12:58:49;15.00;99.90
3727;DHT22;1879;45.876;12.300;2023-03-14T13:01:21;15.00;99.90
3727;DHT22;1879;45.876;12.300;2023-03-14T13:03:51;15.00;99.90
3727;DHT22;1879;45.876;12.300;2023-03-14T13:06:51;15.00;99.90
3727;DHT22;1879;45.876;12.300;2023-03-14T13:09:53;15.00;99.90
3727;DHT22;1879;45.876;12.300;2023-03-14T13:12:26;15.00;99.90
3727;DHT22;1879;45.876;12.300;2023-03-14T13:14:58;15.00;99.90
3727;DHT22;1879;45.876;12.300;2023-03-14T13:17:30;15.10;99.90
3727;DHT22;1879;45.876;12.300;2023-03-14T13:20:02;15.30;99.90
3727;DHT22;1879;45.876;12.300;2023-03-14T13:22:33;15.50;99.90
3727;DHT22;1879;45.876;12.300;2023-03-14T13:25:04;15.80;99.90
3727;DHT22;1879;45.876;12.300;2023-03-14T13:27:34;16.10;99.90
3727;DHT22;1879;45.876;12.300;2023-03-14T13:30:11;16.20;99.90
3727;DHT22;1879;45.876;12.300;2023-03-14T13:32:44;16.30;99.90
3727;DHT22;1879;45.876;12.300;2023-03-14T13:35:16;16.20;99.90
3727;DHT22;1879;45.876;12.300;2023-03-14T13:37:44;16.00;99.90
3727;DHT22;1879;45.876;12.300;2023-03-14T13:40:20;16.00;99.90
3727;DHT22;1879;45.876;12.300;2023-03-14T13:42:47;16.00;99.90
3727;DHT22;1879;45.876;12.300;2023-03-14T13:45:15;15.90;99.90
3727;DHT22;1879;45.876;12.300;2023-03-14T13:47:43;16.20;99.90
3727;DHT22;1879;45.876;12.300;2023-03-14T13:50:15;16.80;99.90
3727;DHT22;1879;45.876;12.300;2023-03-14T13:55:15;20.90;99.90
3727;DHT22;1879;45.876;12.300;2023-03-14T13:57:44;21.30;99.80
3727;DHT22;1879;45.876;12.300;2023-03-14T14:00:19;20.40;99.90
3727;DHT22;1879;45.876;12.300;2023-03-14T14:02:48;20.00;99.90
3727;DHT22;1879;45.876;12.300;2023-03-14T14:05:15;20.40;99.90
3727;DHT22;1879;45.876;12.300;2023-03-14T14:07:43;20.50;99.90
3727;DHT22;1879;45.876;12.300;2023-03-14T14:10:12;21.10;99.40
3727;DHT22;1879;45.876;12.300;2023-03-14T14:12:42;21.80;98.40
3727;DHT22;1879;45.876;12.300;2023-03-14T14:15:14;21.80;97.70
3727;DHT22;1879;45.876;12.300;2023-03-14T14:17:44;22.20;96.40
3727;DHT22;1879;45.876;12.300;2023-03-14T14:20:21;22.80;95.40
3727;DHT22;1879;45.876;12.300;2023-03-14T14:22:49;23.00;94.00
3727;DHT22;1879;45.876;12.300;2023-03-14T14:25:17;24.40;93.20
3727;DHT22;1879;45.876;12.300;2023-03-14T14:27:47;25.70;90.80
3727;DHT22;1879;45.876;12.300;2023-03-14T14:30:32;26.20;86.50
3727;DHT22;1879;45.876;12.300;2023-03-14T14:33:17;25.90;83.30
3727;DHT22;1879;45.876;12.300;2023-03-14T14:35:53;24.80;82.50
3727;DHT22;1879;45.876;12.300;2023-03-14T14:38:21;23.60;85.30
3727;DHT22;1879;45.876;12.300;2023-03-14T14:40:49;22.20;89.30
3727;DHT22;1879;45.876;12.300;2023-03-14T14:43:21;20.90;91.40
3727;DHT22;1879;45.876;12.300;2023-03-14T14:45:51;19.90;93.40
3727;DHT22;1879;45.876;12.300;2023-03-14T14:48:21;19.10;95.20
3727;DHT22;1879;45.876;12.300;2023-03-14T14:50:58;18.50;97.60
3727;DHT22;1879;45.876;12.300;2023-03-14T14:53:29;18.00;99.90
3727;DHT22;1879;45.876;12.300;2023-03-14T14:55:59;17.70;99.90
3727;DHT22;1879;45.876;12.300;2023-03-14T14:58:34;17.50;99.90
3727;DHT22;1879;45.876;12.300;2023-03-14T15:01:07;17.20;99.90
3727;DHT22;1879;45.876;12.300;2023-03-14T15:03:34;17.00;99.90
3727;DHT22;1879;45.876;12.300;2023-03-14T15:06:04;16.80;99.90
3727;DHT22;1879;45.876;12.300;2023-03-14T15:08:31;16.80;99.90
3727;DHT22;1879;45.876;12.300;2023-03-14T15:10:58;16.80;99.90
3727;DHT22;1879;45.876;12.300;2023-03-14T15:13:25;16.70;99.90
3727;DHT22;1879;45.876;12.300;2023-03-14T15:15:52;16.60;99.90
3727;DHT22;1879;45.876;12.300;2023-03-14T15:18:21;16.50;99.90
3727;DHT22;1879;45.876;12.300;2023-03-14T15:20:49;16.30;99.90
3727;DHT22;1879;45.876;12.300;2023-03-14T15:23:19;16.20;99.90
3727;DHT22;1879;45.876;12.300;2023-03-14T15:25:47;16.20;99.90
3727;DHT22;1879;45.876;12.300;2023-03-14T15:28:16;16.30;99.90
3727;DHT22;1879;45.876;12.300;2023-03-14T15:30:46;16.40;99.90
3727;DHT22;1879;45.876;12.300;2023-03-14T15:33:13;16.30;99.90
3727;DHT22;1879;45.876;12.300;2023-03-14T15:35:40;16.30;99.90
3727;DHT22;1879;45.876;12.300;2023-03-14T15:38:10;16.20;99.90
3727;DHT22;1879;45.876;12.300;2023-03-14T15:40:40;16.10;99.90
3727;DHT22;1879;45.876;12.300;2023-03-14T15:43:08;16.20;99.90
3727;DHT22;1879;45.876;12.300;2023-03-14T15:45:35;16.30;99.90
3727;DHT22;1879;45.876;12.300;2023-03-14T15:48:03;16.40;99.90
3727;DHT22;1879;45.876;12.300;2023-03-14T15:50:30;16.30;99.90
3727;DHT22;1879;45.876;12.300;2023-03-14T15:52:57;16.20;99.90
3727;DHT22;1879;45.876;12.300;2023-03-14T15:55:24;16.00;99.90
3727;DHT22;1879;45.876;12.300;2023-03-14T15:57:52;16.10;99.90
3727;DHT22;1879;45.876;12.300;2023-03-14T16:00:20;16.20;99.90
3727;DHT22;1879;45.876;12.300;2023-03-14T16:02:48;16.60;99.90
3727;DHT22;1879;45.876;12.300;2023-03-14T16:05:16;17.00;99.90